Time;durP1;ratioP1;P1;durP2;ratioP2;P2;SDS_P1;SDS_P2;PMS_P1;PMS_P2;Temp;Humidity;BMP_temperature;BMP_pressure;BME280_temperature;BME280_humidity;BME280_pressure;Samples;Min_cycle;Max_cycle;Signal;HPM_P1;HPM_P2
2021/04/27 00:00:14;;;;;;;4.75;1.92;;;12.60;42.90;;;;;;6186595;23;20001;-49
2021/04/27 00:02:41;;;;;;;3.35;1.73;;;12.60;43.00;;;;;;6187004;23;20067;-50
2021/04/27 00:05:09;;;;;;;4.03;1.80;;;12.60;43.00;;;;;;6187297;23;20016;-50
2021/04/27 00:07:35;;;;;;;5.93;2.20;;;12.50;43.00;;;;;;6186637;23;20001;-50
2021/04/27 00:10:01;;;;;;;2.45;1.70;;;12.50;43.20;;;;;;6186834;23;20343;-50
2021/04/27 00:12:27;;;;;;;5.00;2.00;;;12.50;43.10;;;;;;6186694;23;20013;-51
2021/04/27 00:14:52;;;;;;;6.63;2.17;;;12.50;43.10;;;;;;6184837;23;20349;-50
2021/04/27 00:17:18;;;;;;;4.10;2.42;;;12.50;43.30;;;;;;6186939;23;20001;-50
2021/04/27 00:19:44;;;;;;;4.40;2.08;;;12.50;43.20;;;;;;6186437;23;20480;-50
2021/04/27 00:22:10;;;;;;;3.53;2.03;;;12.50;43.80;;;;;;6186682;23;20005;-50
2021/04/27 00:24:35;;;;;;;6.05;1.73;;;12.50;43.30;;;;;;6186699;23;20033;-50
2021/04/27 00:27:01;;;;;;;4.63;1.95;;;12.50;43.20;;;;;;6186904;23;20005;-50
2021/04/27 00:29:27;;;;;;;6.95;2.45;;;12.50;43.30;;;;;;6186259;23;20329;-49
2021/04/27 00:31:53;;;;;;;3.28;2.20;;;12.50;43.30;;;;;;6186436;23;20408;-50
2021/04/27 00:34:19;;;;;;;4.68;1.85;;;12.50;43.30;;;;;;6186998;23;20109;-49
2021/04/27 00:36:44;;;;;;;2.22;1.85;;;12.50;43.40;;;;;;6186433;23;20009;-49
2021/04/27 00:39:10;;;;;;;2.78;2.00;;;12.50;43.40;;;;;;6186565;23;20088;-50
2021/04/27 00:41:36;;;;;;;2.10;1.80;;;12.50;43.50;;;;;;6186500;23;20012;-50
2021/04/27 00:44:02;;;;;;;4.25;2.17;;;12.50;43.50;;;;;;6186578;23;20103;-50
2021/04/27 00:46:27;;;;;;;3.70;2.15;;;12.40;43.30;;;;;;6186742;23;20005;-50
2021/04/27 00:48:53;;;;;;;4.40;2.25;;;12.40;43.30;;;;;;6185926;23;20293;-50
2021/04/27 00:51:19;;;;;;;2.78;1.83;;;12.40;43.30;;;;;;6186646;23;20067;-49
2021/04/27 00:53:45;;;;;;;2.53;1.63;;;12.40;43.40;;;;;;6186556;23;20005;-49
2021/04/27 00:56:10;;;;;;;2.88;2.05;;;12.40;43.50;;;;;;6186456;23;20005;-50
2021/04/27 00:58:36;;;;;;;3.75;1.95;;;12.40;43.50;;;;;;6185684;23;20143;-50
2021/04/27 01:01:02;;;;;;;2.30;1.67;;;12.40;43.40;;;;;;6186351;23;20005;-50
2021/04/27 01:03:28;;;;;;;2.38;1.92;;;12.40;43.30;;;;;;6186420;23;20021;-50
2021/04/27 01:05:54;;;;;;;3.42;1.90;;;12.40;43.30;;;;;;6186682;23;20321;-50
2021/04/27 01:08:34;;;;;;;3.60;1.58;;;12.40;43.40;;;;;;6186209;23;20031;-50
2021/04/27 01:11:10;;;;;;;2.50;1.70;;;12.40;43.50;;;;;;6186327;23;20017;-49
2021/04/27 01:14:00;;;;;;;3.58;1.70;;;12.40;43.40;;;;;;6186498;23;20008;-50
2021/04/27 01:16:26;;;;;;;;;;;12.40;43.40;;;;;;6186825;23;20447;-50
2021/04/27 01:18:53;;;;;;;3.03;1.70;;;12.40;43.40;;;;;;6185890;23;19971;-50
2021/04/27 01:21:22;;;;;;;6.70;2.03;;;12.40;43.40;;;;;;6186841;23;20013;-49
2021/04/27 01:24:14;;;;;;;4.47;1.88;;;12.40;43.50;;;;;;6186124;23;20001;-50
2021/04/27 01:26:50;;;;;;;4.40;2.03;;;12.40;43.40;;;;;;6186350;23;19997;-49
2021/04/27 01:29:21;;;;;;;6.10;1.85;;;12.30;43.40;;;;;;6185944;23;20025;-50
2021/04/27 01:31:48;;;;;;;2.38;1.77;;;12.30;43.50;;;;;;6185778;23;20482;-51
2021/04/27 01:34:24;;;;;;;3.15;2.00;;;12.30;43.50;;;;;;6186224;23;20005;-51
2021/04/27 01:36:51;;;;;;;3.05;1.98;;;12.40;43.40;;;;;;6186353;23;20013;-51
2021/04/27 01:39:19;;;;;;;5.03;2.03;;;12.30;43.50;;;;;;6185438;23;20435;-50
2021/04/27 01:41:47;;;;;;;3.38;2.72;;;12.30;43.50;;;;;;6186121;23;19997;-51
2021/04/27 01:44:14;;;;;;;3.47;1.63;;;12.30;43.60;;;;;;6186158;23;20060;-51
2021/04/27 01:46:42;;;;;;;3.72;1.60;;;12.30;43.60;;;;;;6186098;23;20009;-50
2021/04/27 01:49:08;;;;;;;3.15;2.10;;;12.30;43.60;;;;;;6185390;23;20088;-51
2021/04/27 01:51:34;;;;;;;4.10;1.70;;;12.30;43.60;;;;;;6185602;23;20017;-51
2021/04/27 01:54:00;;;;;;;1.83;1.60;;;12.30;43.50;;;;;;6185626;23;20028;-51
2021/04/27 01:56:26;;;;;;;4.47;1.98;;;12.30;43.70;;;;;;6186264;23;20405;-50
2021/04/27 01:58:52;;;;;;;3.90;1.73;;;12.30;43.80;;;;;;6185045;23;20033;-51
2021/04/27 02:01:18;;;;;;;8.27;1.85;;;12.30;43.80;;;;;;6185820;23;20005;-51
2021/04/27 02:03:46;;;;;;;6.30;1.88;;;12.30;43.90;;;;;;6185654;23;20009;-50
2021/04/27 02:06:12;;;;;;;5.95;2.03;;;12.30;43.60;;;;;;6186206;23;20347;-50
2021/04/27 02:08:40;;;;;;;4.47;1.98;;;12.30;43.70;;;;;;6185312;23;20467;-50
2021/04/27 02:11:07;;;;;;;2.70;1.95;;;12.30;43.70;;;;;;6185681;23;20009;-50
2021/04/27 02:13:34;;;;;;;6.80;1.92;;;12.30;43.90;;;;;;6185677;23;20005;-51
2021/04/27 02:16:01;;;;;;;4.95;1.95;;;12.30;43.80;;;;;;6185742;23;20305;-51
2021/04/27 02:18:34;;;;;;;2.15;1.90;;;12.30;43.90;;;;;;6185098;23;20301;-51
2021/04/27 02:21:03;;;;;;;4.78;2.42;;;12.30;43.90;;;;;;6185620;23;20012;-51
2021/04/27 02:23:33;;;;;;;2.17;1.63;;;12.30;43.90;;;;;;6185594;23;20076;-51
2021/04/27 02:25:59;;;;;;;3.13;1.98;;;12.30;44.00;;;;;;6185589;23;20005;-51
2021/04/27 02:28:26;;;;;;;2.58;1.75;;;12.30;44.30;;;;;;6185303;23;20009;-51
2021/04/27 02:30:52;;;;;;;4.47;1.67;;;12.20;43.90;;;;;;6185627;23;20019;-51
2021/04/27 02:33:20;;;;;;;2.70;1.83;;;12.20;43.90;;;;;;6185795;23;20076;-50
2021/04/27 02:35:47;;;;;;;4.88;2.20;;;12.20;44.00;;;;;;6182173;23;20009;-51
2021/04/27 02:38:16;;;;;;;4.35;1.88;;;12.20;44.10;;;;;;6185190;23;20084;-51
2021/04/27 02:40:42;;;;;;;2.85;2.20;;;12.20;43.90;;;;;;6185206;23;20080;-50
2021/04/27 02:43:07;;;;;;;12.95;2.72;;;12.20;43.90;;;;;;6185899;23;20037;-50
2021/04/27 02:45:33;;;;;;;3.50;1.92;;;12.20;44.00;;;;;;6185707;23;20005;-50
2021/04/27 02:48:26;;;;;;;5.93;2.28;;;12.20;44.20;;;;;;6185678;23;20004;-49
2021/04/27 02:50:57;;;;;;;5.53;1.85;;;12.20;44.00;;;;;;6182248;23;20159;-50
2021/04/27 02:53:23;;;;;;;3.60;1.83;;;12.20;44.20;;;;;;6186021;23;20001;-50
2021/04/27 02:55:49;;;;;;;4.00;2.30;;;12.20;44.10;;;;;;6185706;23;20040;-49
2021/04/27 02:58:16;;;;;;;3.03;1.77;;;12.20;44.20;;;;;;6185134;23;19997;-49
2021/04/27 03:00:41;;;;;;;2.15;1.70;;;12.20;44.10;;;;;;6184794;23;20001;-51
2021/04/27 03:03:07;;;;;;;3.40;2.05;;;12.20;44.10;;;;;;6186051;23;20029;-50
2021/04/27 03:05:33;;;;;;;4.85;2.10;;;12.20;44.20;;;;;;6187521;23;20405;-50
2021/04/27 03:07:59;;;;;;;4.28;2.25;;;12.20;44.10;;;;;;6187580;23;20005;-50
2021/04/27 03:10:25;;;;;;;7.03;2.38;;;12.20;44.30;;;;;;6187006;23;20013;-50
2021/04/27 03:12:51;;;;;;;6.32;2.00;;;12.20;44.20;;;;;;6187161;23;20021;-50
2021/04/27 03:15:19;;;;;;;5.07;3.00;;;12.10;44.10;;;;;;6187529;23;20005;-49
2021/04/27 03:17:46;;;;;;;5.95;2.13;;;12.10;44.10;;;;;;6187576;23;19997;-50
2021/04/27 03:20:14;;;;;;;3.67;2.08;;;12.10;44.30;;;;;;6186720;23;20016;-50
2021/04/27 03:22:40;;;;;;;3.58;1.83;;;12.10;44.30;;;;;;6187092;23;20029;-50
2021/04/27 03:25:08;;;;;;;3.38;2.47;;;12.10;44.30;;;;;;6187270;23;20005;-50
2021/04/27 03:27:34;;;;;;;5.63;2.20;;;12.10;44.20;;;;;;6186882;23;20013;-50
2021/04/27 03:30:00;;;;;;;6.30;2.10;;;12.10;44.30;;;;;;6186755;23;20009;-50
2021/04/27 03:32:26;;;;;;;4.18;1.90;;;12.10;44.30;;;;;;6187362;23;20039;-50
2021/04/27 03:34:52;;;;;;;4.38;2.40;;;12.10;44.30;;;;;;6187570;23;20428;-51
2021/04/27 03:37:18;;;;;;;5.45;2.13;;;12.10;44.50;;;;;;6186932;23;20365;-50
2021/04/27 03:39:44;;;;;;;5.82;2.15;;;12.10;44.30;;;;;;6186705;23;20385;-50
2021/04/27 03:42:09;;;;;;;3.28;2.42;;;12.10;44.40;;;;;;6186846;23;20008;-50
2021/04/27 03:44:35;;;;;;;5.85;2.63;;;12.10;44.40;;;;;;6187529;23;20005;-50
2021/04/27 03:47:01;;;;;;;5.97;2.60;;;12.10;44.40;;;;;;6187196;23;20094;-50
2021/04/27 03:49:27;;;;;;;4.10;2.00;;;12.10;44.50;;;;;;6187046;23;20009;-50
2021/04/27 03:51:52;;;;;;;3.47;2.03;;;12.10;44.70;;;;;;6186525;23;20040;-50
2021/04/27 03:54:18;;;;;;;3.08;1.95;;;12.10;44.60;;;;;;6187096;23;20001;-50
2021/04/27 03:56:45;;;;;;;4.93;2.38;;;12.10;44.60;;;;;;6187062;23;20009;-51
2021/04/27 03:59:10;;;;;;;4.93;2.25;;;12.00;44.50;;;;;;6186751;23;20023;-50
2021/04/27 04:01:36;;;;;;;6.53;2.40;;;12.00;44.60;;;;;;6187184;23;20401;-51
2021/04/27 04:04:02;;;;;;;5.55;2.15;;;12.00;44.80;;;;;;6186830;23;20344;-51
2021/04/27 04:06:28;;;;;;;5.10;2.55;;;12.10;44.60;;;;;;6187055;23;20005;-50
2021/04/27 04:08:54;;;;;;;5.63;2.47;;;12.00;44.60;;;;;;6186743;23;20001;-50
2021/04/27 04:11:20;;;;;;;3.72;2.28;;;12.00;44.60;;;;;;6186745;23;20017;-50
2021/04/27 04:13:46;;;;;;;3.35;1.92;;;12.00;44.60;;;;;;6187007;23;20005;-50
2021/04/27 04:16:11;;;;;;;3.83;1.90;;;12.00;44.70;;;;;;6186738;23;20012;-50
2021/04/27 04:18:37;;;;;;;5.65;2.72;;;12.00;44.60;;;;;;6186312;23;20005;-51
2021/04/27 04:21:03;;;;;;;5.13;2.85;;;12.00;44.80;;;;;;6186647;23;20083;-50
2021/04/27 04:23:29;;;;;;;3.00;2.25;;;12.00;44.80;;;;;;6185187;23;20012;-50
2021/04/27 04:25:55;;;;;;;5.65;2.15;;;12.00;44.70;;;;;;6186800;23;20025;-50
2021/04/27 04:28:21;;;;;;;3.63;2.25;;;12.00;44.70;;;;;;6185878;23;20084;-50
2021/04/27 04:30:46;;;;;;;4.03;2.38;;;12.00;44.70;;;;;;6186238;23;20040;-50
2021/04/27 04:33:12;;;;;;;5.20;2.17;;;12.00;44.80;;;;;;6186660;23;20005;-50
2021/04/27 04:35:38;;;;;;;4.80;2.72;;;12.00;44.80;;;;;;6186666;23;20014;-50
2021/04/27 04:38:04;;;;;;;4.63;2.42;;;12.00;44.90;;;;;;6186818;23;20087;-50
2021/04/27 04:40:29;;;;;;;5.45;2.67;;;12.00;44.80;;;;;;6186511;23;20076;-50
2021/04/27 04:42:55;;;;;;;7.10;3.00;;;12.00;44.80;;;;;;6186414;23;20080;-50
2021/04/27 04:45:25;;;;;;;6.90;2.22;;;12.00;44.80;;;;;;6186125;23;20005;-51
2021/04/27 04:47:51;;;;;;;4.03;2.30;;;12.00;45.00;;;;;;6186502;23;20015;-50
2021/04/27 04:50:17;;;;;;;7.88;3.08;;;12.00;44.90;;;;;;6186441;23;20100;-51
2021/04/27 04:52:42;;;;;;;4.25;2.60;;;12.00;44.80;;;;;;6186657;23;19997;-51
2021/04/27 04:55:09;;;;;;;5.55;2.75;;;12.00;44.80;;;;;;6186391;23;20001;-50
2021/04/27 04:57:36;;;;;;;21.13;2.55;;;12.00;44.90;;;;;;6186209;23;20413;-50
2021/04/27 05:00:04;;;;;;;4.18;2.10;;;12.00;45.00;;;;;;6185835;23;20009;-51
2021/04/27 05:02:30;;;;;;;9.50;3.38;;;12.00;44.90;;;;;;6186397;23;19997;-50
2021/04/27 05:04:56;;;;;;;4.63;2.72;;;12.00;44.80;;;;;;6186250;23;20034;-50
2021/04/27 05:07:23;;;;;;;5.45;2.55;;;12.00;45.00;;;;;;6186134;23;20005;-50
2021/04/27 05:09:49;;;;;;;4.47;2.55;;;12.00;45.00;;;;;;6185728;23;20009;-50
2021/04/27 05:12:14;;;;;;;5.20;2.55;;;12.10;45.00;;;;;;6186090;23;20051;-51
2021/04/27 05:14:42;;;;;;;6.13;2.80;;;12.10;44.90;;;;;;6186419;23;20024;-50
2021/04/27 05:17:09;;;;;;;8.23;2.65;;;12.10;44.90;;;;;;6186557;23;20009;-51
2021/04/27 05:19:36;;;;;;;13.02;3.08;;;12.10;45.00;;;;;;6185723;23;20013;-51
2021/04/27 05:22:03;;;;;;;5.03;2.38;;;12.20;45.00;;;;;;6209498;23;20345;-51
2021/04/27 05:24:29;;;;;;;6.53;2.80;;;12.20;45.00;;;;;;6185722;23;20040;-51
2021/04/27 05:26:55;;;;;;;4.90;2.75;;;12.30;44.60;;;;;;6186100;23;20001;-50
2021/04/27 05:29:21;;;;;;;8.02;2.72;;;12.40;44.40;;;;;;6185792;23;20005;-50
2021/04/27 05:31:48;;;;;;;3.83;2.50;;;12.40;44.20;;;;;;6186025;23;20023;-50
2021/04/27 05:34:15;;;;;;;4.15;2.35;;;12.40;44.40;;;;;;6186221;23;19997;-51
2021/04/27 05:36:41;;;;;;;3.38;2.70;;;12.40;44.10;;;;;;6186572;23;20001;-51
2021/04/27 05:39:07;;;;;;;5.70;2.78;;;12.50;44.20;;;;;;6185619;23;20036;-51
2021/04/27 05:41:32;;;;;;;4.57;2.08;;;12.50;44.00;;;;;;6186181;23;20293;-50
2021/04/27 05:43:58;;;;;;;4.95;2.67;;;12.60;44.00;;;;;;6184123;23;20309;-50
2021/04/27 05:46:23;;;;;;;4.13;2.60;;;12.60;43.70;;;;;;6186365;23;20009;-50
2021/04/27 05:48:49;;;;;;;6.30;2.97;;;12.60;43.70;;;;;;6185711;23;20055;-51
2021/04/27 05:51:15;;;;;;;3.38;2.33;;;12.70;44.20;;;;;;6185721;23;20035;-50
2021/04/27 05:53:40;;;;;;;7.43;2.80;;;12.60;43.80;;;;;;6186059;23;20020;-50
2021/04/27 05:56:06;;;;;;;6.30;2.95;;;12.70;43.80;;;;;;6186061;23;20029;-51
2021/04/27 05:58:32;;;;;;;5.70;3.28;;;12.70;44.00;;;;;;6185491;23;20009;-50
2021/04/27 06:00:58;;;;;;;4.78;2.20;;;12.70;43.60;;;;;;6186121;23;20012;-51
2021/04/27 06:03:23;;;;;;;5.20;2.90;;;12.80;43.80;;;;;;6185856;23;20012;-51
2021/04/27 06:05:49;;;;;;;4.28;2.40;;;12.80;43.60;;;;;;6185751;23;20009;-50
2021/04/27 06:08:14;;;;;;;3.75;2.30;;;12.90;44.00;;;;;;6185217;23;19993;-51
2021/04/27 06:10:40;;;;;;;9.68;3.22;;;12.90;43.30;;;;;;6185567;23;20032;-50
2021/04/27 06:13:05;;;;;;;4.80;3.00;;;12.90;43.30;;;;;;6185665;23;20013;-50
2021/04/27 06:15:31;;;;;;;8.55;3.00;;;13.00;43.40;;;;;;6186197;23;20339;-50
2021/04/27 06:17:57;;;;;;;4.32;2.55;;;13.00;43.60;;;;;;6185577;23;20016;-50
2021/04/27 06:20:22;;;;;;;13.57;3.60;;;13.00;43.60;;;;;;6185144;23;20021;-50
2021/04/27 06:22:48;;;;;;;7.90;3.65;;;13.00;43.50;;;;;;6185320;23;19997;-50
2021/04/27 06:25:13;;;;;;;8.18;2.90;;;13.10;43.50;;;;;;6185758;23;20025;-50
2021/04/27 06:27:39;;;;;;;8.38;3.10;;;13.10;43.60;;;;;;6185668;23;20301;-50
2021/04/27 06:30:08;;;;;;;5.53;2.58;;;13.20;43.40;;;;;;6185358;23;20009;-51
2021/04/27 06:32:34;;;;;;;4.18;2.50;;;13.20;43.40;;;;;;6185902;23;20016;-50
2021/04/27 06:34:59;;;;;;;7.75;3.42;;;13.30;43.20;;;;;;6185338;23;20005;-50
2021/04/27 06:37:25;;;;;;;5.47;2.78;;;13.30;43.30;;;;;;6185934;23;20005;-50
2021/04/27 06:39:51;;;;;;;6.68;3.40;;;13.30;43.00;;;;;;6188914;23;20003;-50
2021/04/27 06:42:17;;;;;;;5.25;2.67;;;13.40;43.10;;;;;;6188589;23;20013;-50
2021/04/27 06:44:42;;;;;;;10.63;3.50;;;13.40;43.10;;;;;;6189211;23;20004;-50
2021/04/27 06:47:09;;;;;;;6.13;3.30;;;13.40;43.00;;;;;;6188929;23;20040;-50
2021/04/27 06:49:36;;;;;;;5.05;2.58;;;13.50;42.90;;;;;;6188677;23;20079;-50
2021/04/27 06:52:02;;;;;;;5.95;3.10;;;13.50;42.70;;;;;;6188974;23;20017;-51
2021/04/27 06:54:27;;;;;;;6.10;3.00;;;13.50;42.80;;;;;;6189005;23;20005;-50
2021/04/27 06:56:53;;;;;;;6.82;3.72;;;13.60;42.60;;;;;;6189030;23;20051;-50
2021/04/27 06:59:20;;;;;;;6.75;3.53;;;13.70;42.90;;;;;;6188743;23;20004;-50
2021/04/27 07:01:48;;;;;;;7.05;3.72;;;13.70;42.80;;;;;;6189033;23;20054;-51
2021/04/27 07:04:13;;;;;;;8.57;3.45;;;13.80;42.70;;;;;;6188608;23;20064;-51
2021/04/27 07:06:39;;;;;;;9.90;3.67;;;13.80;42.70;;;;;;6189067;23;20091;-51
2021/04/27 07:09:05;;;;;;;4.50;3.35;;;13.90;42.80;;;;;;6188442;23;20297;-51
2021/04/27 07:11:31;;;;;;;7.03;3.40;;;13.90;42.60;;;;;;6188416;23;20305;-51
2021/04/27 07:13:58;;;;;;;7.60;3.85;;;13.90;42.90;;;;;;6188828;23;20213;-50
2021/04/27 07:16:24;;;;;;;8.45;2.90;;;13.90;41.90;;;;;;6188558;23;20013;-48
2021/04/27 07:18:50;;;;;;;7.95;3.47;;;13.70;42.10;;;;;;6188104;23;20044;-49
2021/04/27 07:21:17;;;;;;;6.95;3.85;;;13.70;42.10;;;;;;6188588;23;20020;-49
2021/04/27 07:23:42;;;;;;;6.05;3.33;;;13.80;41.90;;;;;;6188751;23;20012;-48
2021/04/27 07:26:08;;;;;;;6.40;3.95;;;13.80;41.80;;;;;;6188583;23;20380;-49
2021/04/27 07:28:34;;;;;;;10.38;3.65;;;13.60;41.30;;;;;;6188793;23;20055;-48
2021/04/27 07:31:00;;;;;;;10.98;3.70;;;13.30;41.30;;;;;;6188352;23;20084;-48
2021/04/27 07:33:26;;;;;;;14.02;3.58;;;13.40;41.80;;;;;;6188635;23;20025;-48
2021/04/27 07:35:51;;;;;;;6.82;2.90;;;13.60;41.40;;;;;;6188879;23;20009;-48
2021/04/27 07:38:17;;;;;;;11.25;3.53;;;13.80;41.10;;;;;;6188568;23;20008;-48
2021/04/27 07:40:43;;;;;;;10.15;3.45;;;13.90;40.80;;;;;;6188951;23;20340;-48
2021/04/27 07:43:08;;;;;;;23.30;4.40;;;14.00;40.70;;;;;;6189065;23;20004;-48
2021/04/27 07:45:35;;;;;;;9.65;3.72;;;14.10;40.60;;;;;;6188791;23;20001;-48
2021/04/27 07:48:03;;;;;;;6.60;3.40;;;14.10;40.60;;;;;;6188984;23;20005;-48
2021/04/27 07:50:29;;;;;;;14.57;4.03;;;14.10;40.60;;;;;;6186428;23;20017;-48
2021/04/27 07:52:55;;;;;;;10.80;4.18;;;14.10;40.70;;;;;;6187150;23;20032;-47
2021/04/27 07:55:21;;;;;;;7.30;3.95;;;14.10;40.70;;;;;;6187294;23;20012;-48
2021/04/27 07:57:47;;;;;;;5.32;3.25;;;14.10;40.80;;;;;;6186927;23;20001;-48
2021/04/27 08:00:13;;;;;;;10.93;3.40;;;14.10;40.80;;;;;;6186753;23;20005;-48
2021/04/27 08:02:39;;;;;;;6.63;3.75;;;14.10;40.80;;;;;;6186968;23;20308;-48
2021/04/27 08:05:06;;;;;;;7.70;3.97;;;14.20;41.40;;;;;;6186604;23;20055;-48
2021/04/27 08:07:31;;;;;;;7.82;3.90;;;14.20;40.80;;;;;;6186841;23;20004;-48
2021/04/27 08:09:57;;;;;;;7.88;4.45;;;14.20;40.80;;;;;;6186297;23;20009;-48
2021/04/27 08:12:23;;;;;;;13.25;4.07;;;14.30;40.70;;;;;;6187195;23;20083;-48
2021/04/27 08:14:49;;;;;;;7.00;4.32;;;14.50;40.70;;;;;;6187036;23;20301;-49
2021/04/27 08:17:14;;;;;;;7.07;3.50;;;14.80;41.30;;;;;;6187066;23;20080;-49
2021/04/27 08:19:40;;;;;;;10.50;4.22;;;15.00;40.40;;;;;;6186147;23;20005;-49
2021/04/27 08:22:06;;;;;;;12.55;4.30;;;15.10;40.10;;;;;;6186790;23;20076;-48
2021/04/27 08:24:33;;;;;;;8.40;4.20;;;15.20;39.90;;;;;;6186605;23;20005;-48
2021/04/27 08:26:59;;;;;;;5.10;3.45;;;15.30;39.80;;;;;;6186984;23;20001;-48
2021/04/27 08:29:25;;;;;;;18.70;4.75;;;15.30;39.70;;;;;;6186207;23;20337;-48
2021/04/27 08:31:51;;;;;;;7.35;4.30;;;15.20;39.70;;;;;;6186951;23;20016;-48
2021/04/27 08:34:16;;;;;;;8.38;4.63;;;15.00;39.70;;;;;;6186694;23;20001;-48
2021/04/27 08:36:43;;;;;;;11.23;4.80;;;14.80;40.10;;;;;;6186266;23;20475;-48
2021/04/27 08:39:08;;;;;;;7.75;4.72;;;14.70;40.40;;;;;;6186594;23;20001;-48
2021/04/27 08:41:36;;;;;;;13.90;5.57;;;14.60;40.70;;;;;;6186755;23;20001;-48
2021/04/27 08:44:03;;;;;;;15.10;5.22;;;14.50;40.80;;;;;;6186867;23;20033;-49
2021/04/27 08:46:29;;;;;;;9.50;4.25;;;14.40;41.60;;;;;;6186700;23;20012;-49
2021/04/27 08:48:55;;;;;;;10.15;4.72;;;14.30;41.40;;;;;;6186481;23;20316;-48
2021/04/27 08:51:22;;;;;;;20.55;5.70;;;14.30;41.60;;;;;;6186218;23;20013;-49
2021/04/27 08:53:48;;;;;;;11.40;5.25;;;14.20;41.70;;;;;;6186399;23;20001;-48
2021/04/27 08:56:13;;;;;;;8.23;5.05;;;14.20;41.80;;;;;;6186339;23;20059;-49
2021/04/27 08:58:40;;;;;;;10.85;4.95;;;14.10;41.90;;;;;;6186278;23;20005;-48
2021/04/27 09:01:06;;;;;;;10.48;4.63;;;14.20;42.00;;;;;;6186402;23;20016;-48
2021/04/27 09:03:46;;;;;;;10.35;4.82;;;14.20;42.00;;;;;;6186293;23;19997;-47
2021/04/27 09:06:16;;;;;;;7.87;4.97;;;14.10;42.10;;;;;;6186420;23;20037;-48
2021/04/27 09:08:42;;;;;;;8.18;4.55;;;14.10;42.10;;;;;;6185949;23;20533;-48
2021/04/27 09:11:26;;;;;;;15.90;5.57;;;14.10;42.20;;;;;;6186352;23;20100;-48
2021/04/27 09:14:11;;;;;;;9.32;5.47;;;14.10;42.20;;;;;;6186551;23;20009;-48
2021/04/27 09:16:38;;;;;;;9.75;5.38;;;14.10;42.30;;;;;;6186506;23;20011;-48
2021/04/27 09:19:05;;;;;;;11.07;5.43;;;14.10;42.30;;;;;;6186055;23;20072;-48
2021/04/27 09:21:37;;;;;;;7.97;5.25;;;14.10;42.30;;;;;;6186296;23;20011;-48
2021/04/27 09:24:15;;;;;;;7.90;4.72;;;14.10;42.40;;;;;;6186535;23;19997;-48
2021/04/27 09:26:42;;;;;;;10.82;5.32;;;14.20;42.50;;;;;;6209424;23;20012;-48
2021/04/27 09:29:08;;;;;;;12.15;5.50;;;14.10;42.40;;;;;;6186131;23;20004;-48
2021/04/27 09:31:38;;;;;;;9.15;4.70;;;14.20;42.50;;;;;;6186285;23;20020;-48
2021/04/27 09:34:23;;;;;;;13.85;5.25;;;14.20;42.50;;;;;;6186324;23;19997;-48
2021/04/27 09:36:51;;;;;;;7.70;4.70;;;14.20;42.60;;;;;;6185891;23;20009;-48
2021/04/27 09:39:31;;;;;;;12.50;5.35;;;14.20;42.60;;;;;;6185558;23;19996;-48
2021/04/27 09:41:59;;;;;;;18.60;5.50;;;14.30;42.60;;;;;;6185822;23;20001;-49
2021/04/27 09:44:31;;;;;;;7.13;4.28;;;14.30;42.70;;;;;;6186345;23;20001;-48
2021/04/27 09:47:08;;;;;;;8.23;4.72;;;14.30;42.70;;;;;;6185681;23;20012;-48
2021/04/27 09:49:34;;;;;;;8.88;4.82;;;14.40;42.70;;;;;;6185610;23;20016;-49
2021/04/27 09:51:59;;;;;;;13.52;5.32;;;14.40;42.60;;;;;;6185989;23;20020;-49
2021/04/27 09:54:25;;;;;;;9.27;5.13;;;14.30;42.40;;;;;;6185936;23;20417;-48
2021/04/27 09:56:52;;;;;;;12.30;4.80;;;14.40;42.30;;;;;;6186134;23;20009;-48
2021/04/27 09:59:22;;;;;;;10.82;4.57;;;14.40;42.30;;;;;;6185728;23;20314;-49
2021/04/27 10:01:53;;;;;;;8.57;4.95;;;14.30;42.40;;;;;;6185451;23;20005;-49
2021/04/27 10:04:20;;;;;;;14.77;4.95;;;14.40;42.40;;;;;;6185581;23;20337;-48
2021/04/27 10:06:47;;;;;;;7.07;4.57;;;14.40;42.30;;;;;;6185539;23;20005;-48
2021/04/27 10:09:13;;;;;;;6.25;4.03;;;14.40;42.20;;;;;;6185815;23;20016;-48
2021/04/27 10:11:39;;;;;;;9.50;5.32;;;14.40;42.30;;;;;;6185421;23;20013;-49
2021/04/27 10:14:08;;;;;;;9.40;5.00;;;14.40;42.40;;;;;;6185379;23;19997;-48
2021/04/27 10:16:34;;;;;;;9.68;4.82;;;14.40;42.30;;;;;;6185446;23;20473;-48
2021/04/27 10:19:01;;;;;;;8.70;4.38;;;14.40;42.40;;;;;;6185590;23;20005;-48
2021/04/27 10:21:27;;;;;;;9.38;4.40;;;14.40;42.30;;;;;;6185651;23;20005;-48
2021/04/27 10:23:57;;;;;;;12.88;4.75;;;14.40;42.40;;;;;;6185272;23;20005;-48
2021/04/27 10:26:24;;;;;;;14.18;4.78;;;14.40;42.30;;;;;;6185906;23;20032;-48
2021/04/27 10:29:13;;;;;;;10.40;4.53;;;14.50;42.30;;;;;;6185900;23;20076;-48
2021/04/27 10:31:40;;;;;;;12.63;5.55;;;14.50;42.30;;;;;;6185338;23;20013;-49
2021/04/27 10:34:15;;;;;;;10.75;4.95;;;14.50;42.30;;;;;;6186080;23;19997;-48
2021/04/27 10:37:00;;;;;;;12.45;5.05;;;14.50;42.30;;;;;;6185517;23;20424;-48
2021/04/27 10:39:37;;;;;;;10.38;5.22;;;14.50;42.30;;;;;;6174583;23;20008;-48
2021/04/27 10:42:35;;;;;;;14.45;4.70;;;14.50;42.30;;;;;;6185383;23;20587;-49
2021/04/27 10:45:05;;;;;;;9.02;4.57;;;14.60;42.30;;;;;;6123476;23;20081;-49
2021/04/27 10:47:43;;;;;;;17.83;5.78;;;14.60;42.40;;;;;;6123193;23;20006;-48
2021/04/27 10:50:24;;;;;;;9.57;4.78;;;14.60;42.40;;;;;;6122689;23;20438;-48
2021/04/27 10:52:49;;;;;;;9.57;5.10;;;14.60;42.40;;;;;;6123382;23;20018;-49
2021/04/27 10:55:29;;;;;;;10.95;5.72;;;14.60;42.40;;;;;;6123468;23;20015;-49
2021/04/27 10:57:58;;;;;;;14.82;6.53;;;14.60;42.70;;;;;;6123293;23;20414;-49
2021/04/27 11:00:39;;;;;;;15.93;5.63;;;14.50;42.50;;;;;;6122919;23;20010;-49
2021/04/27 11:03:11;;;;;;;10.57;4.68;;;14.60;42.60;;;;;;6123244;23;20065;-49
2021/04/27 11:05:49;;;;;;;9.13;5.40;;;14.60;42.70;;;;;;6123458;23;20006;-49
2021/04/27 11:08:15;;;;;;;9.38;5.30;;;14.60;42.90;;;;;;6123138;23;20065;-48
2021/04/27 11:10:45;;;;;;;11.60;5.57;;;14.60;42.80;;;;;;6123145;23;20018;-48
2021/04/27 11:13:13;;;;;;;11.85;4.15;;;14.50;42.70;;;;;;6123036;23;20029;-48
2021/04/27 11:15:43;;;;;;;8.93;4.65;;;14.60;42.60;;;;;;6123268;23;20093;-49
2021/04/27 11:18:09;;;;;;;9.98;5.45;;;14.60;42.70;;;;;;6123303;23;20002;-49
2021/04/27 11:20:52;;;;;;;11.43;5.13;;;14.60;42.60;;;;;;6153353;23;20012;-49
2021/04/27 11:23:43;;;;;;;9.27;4.82;;;14.60;42.40;;;;;;6185584;23;20231;-48
2021/04/27 11:26:33;;;;;;;7.18;3.25;;;14.60;42.50;;;;;;6187589;23;20005;-50
2021/04/27 11:28:59;;;;;;;;;;;14.60;42.40;;;;;;6187906;23;20091;-49
2021/04/27 11:31:25;;;;;;;10.48;4.97;;;14.60;42.70;;;;;;6187287;23;20002;-48
2021/04/27 11:34:02;;;;;;;10.90;5.22;;;14.60;42.80;;;;;;6187132;23;20013;-49
2021/04/27 11:36:39;;;;;;;12.27;5.75;;;14.70;42.70;;;;;;6187152;23;20009;-49
2021/04/27 11:39:15;;;;;;;8.05;4.30;;;14.60;42.80;;;;;;6186805;23;20306;-48
2021/04/27 11:41:48;;;;;;;12.10;4.22;;;14.70;42.80;;;;;;6186933;23;20432;-48
2021/04/27 11:44:16;;;;;;;9.40;4.47;;;14.70;42.90;;;;;;6186729;23;20401;-49
2021/04/27 11:47:03;;;;;;;15.32;5.88;;;14.70;42.90;;;;;;6187343;23;20396;-48
2021/04/27 11:49:58;;;;;;;12.45;4.78;;;14.80;42.90;;;;;;6187060;23;20008;-48
2021/04/27 11:52:52;;;;;;;12.10;5.65;;;14.70;43.00;;;;;;6186627;23;20016;-49
2021/04/27 11:55:25;;;;;;;9.73;4.53;;;14.80;42.90;;;;;;6186980;23;20405;-49
2021/04/27 11:57:56;;;;;;;10.88;5.38;;;14.80;43.30;;;;;;6187142;23;20080;-48
2021/04/27 12:00:30;;;;;;;13.07;5.47;;;14.80;43.00;;;;;;6186440;23;20360;-48
2021/04/27 12:02:57;;;;;;;8.25;5.03;;;14.80;43.10;;;;;;6186677;23;20389;-48
2021/04/27 12:05:23;;;;;;;11.55;5.18;;;14.80;43.10;;;;;;6187206;23;20048;-49
2021/04/27 12:07:49;;;;;;;10.50;5.30;;;14.80;43.10;;;;;;6187049;23;20005;-49
2021/04/27 12:10:15;;;;;;;14.68;5.00;;;14.80;42.90;;;;;;6186354;23;20007;-49
2021/04/27 12:12:49;;;;;;;9.70;5.72;;;14.80;42.80;;;;;;6186629;23;20005;-48
2021/04/27 12:15:20;;;;;;;7.07;4.22;;;14.90;43.00;;;;;;6186786;23;20001;-48
2021/04/27 12:17:46;;;;;;;14.30;4.95;;;14.80;42.90;;;;;;6186839;23;20009;-48
2021/04/27 12:20:18;;;;;;;10.40;5.18;;;14.80;43.00;;;;;;6186399;23;20085;-48
2021/04/27 12:22:44;;;;;;;16.08;5.60;;;14.80;43.00;;;;;;6186867;23;20009;-49
2021/04/27 12:25:17;;;;;;;12.68;5.90;;;14.80;43.00;;;;;;6187057;23;20060;-49
2021/04/27 12:27:43;;;;;;;10.45;5.10;;;14.80;42.90;;;;;;6186924;23;20005;-49
2021/04/27 12:30:12;;;;;;;10.23;5.93;;;14.80;42.80;;;;;;6185982;23;20052;-49
2021/04/27 12:32:41;;;;;;;11.52;5.53;;;14.80;43.00;;;;;;6186556;23;20044;-48
2021/04/27 12:35:17;;;;;;;8.32;4.53;;;14.80;43.00;;;;;;6186940;23;20113;-49
2021/04/27 12:37:43;;;;;;;11.40;5.30;;;14.80;43.20;;;;;;6186520;23;20008;-48
2021/04/27 12:40:20;;;;;;;16.30;6.15;;;14.80;43.20;;;;;;6186608;23;20076;-49
2021/04/27 12:42:48;;;;;;;12.35;5.43;;;14.80;43.20;;;;;;6186611;23;20002;-48
2021/04/27 12:45:15;;;;;;;11.20;4.93;;;14.80;43.20;;;;;;6186460;23;20323;-48
2021/04/27 12:47:42;;;;;;;10.68;4.82;;;14.80;43.20;;;;;;6186297;23;20089;-48
2021/04/27 12:50:18;;;;;;;16.15;6.28;;;14.80;43.30;;;;;;6186400;23;20397;-48